createdAt,value
2022-11-26T00:02:21.680Z,2.20
2022-11-26T00:04:50.519Z,2.30
2022-11-26T00:07:23.531Z,2.30
2022-11-26T00:09:51.454Z,2.30
2022-11-26T00:12:22.320Z,2.30
2022-11-26T00:14:50.673Z,2.30
2022-11-26T00:17:19.491Z,2.30
2022-11-26T00:19:47.685Z,2.20
2022-11-26T00:22:30.636Z,2.20
2022-11-26T00:24:59.056Z,2.20
2022-11-26T00:27:29.089Z,2.20
2022-11-26T00:29:56.861Z,2.20
2022-11-26T00:32:26.907Z,2.20
2022-11-26T00:34:54.549Z,2.20
2022-11-26T00:37:28.440Z,2.20
2022-11-26T00:39:57.491Z,2.30
2022-11-26T00:42:26.113Z,2.20
2022-11-26T00:44:53.881Z,2.30
2022-11-26T00:47:22.088Z,2.30
2022-11-26T00:49:49.835Z,2.30
2022-11-26T00:52:34.761Z,2.30
2022-11-26T00:55:14.551Z,2.30
2022-11-26T00:57:42.866Z,2.30
2022-11-26T01:00:19.083Z,2.40
2022-11-26T01:02:48.041Z,2.30
2022-11-26T01:05:16.323Z,2.30
2022-11-26T01:07:45.468Z,2.30
2022-11-26T01:10:26.334Z,2.30
2022-11-26T01:12:56.830Z,2.20
2022-11-26T01:15:26.418Z,2.30
2022-11-26T01:17:55.067Z,2.20
2022-11-26T01:20:29.747Z,2.30
2022-11-26T01:22:59.592Z,2.20
2022-11-26T01:25:27.928Z,2.20
2022-11-26T01:27:56.779Z,2.20
2022-11-26T01:30:30.008Z,2.20
2022-11-26T01:33:01.091Z,2.20
2022-11-26T01:35:29.804Z,2.20
2022-11-26T01:37:58.383Z,2.20
2022-11-26T01:40:30.883Z,2.20
2022-11-26T01:43:23.159Z,2.20
2022-11-26T01:45:51.209Z,2.20
2022-11-26T01:48:34.872Z,2.20
2022-11-26T01:51:06.762Z,2.20
2022-11-26T01:53:41.355Z,2.20
2022-11-26T01:56:31.600Z,2.20
2022-11-26T01:59:20.491Z,2.20
2022-11-26T02:01:51.707Z,2.20
2022-11-26T02:04:25.740Z,2.20
2022-11-26T02:06:56.136Z,2.20
2022-11-26T02:09:26.413Z,2.20
2022-11-26T02:11:54.846Z,2.30
2022-11-26T02:14:37.399Z,2.30
2022-11-26T02:17:30.395Z,2.30
2022-11-26T02:20:04.453Z,2.30
2022-11-26T02:23:16.942Z,2.30
2022-11-26T02:26:03.547Z,2.30
2022-11-26T02:28:52.764Z,2.30
2022-11-26T02:31:35.895Z,2.30
2022-11-26T02:34:13.920Z,2.40
2022-11-26T02:37:02.238Z,2.40
2022-11-26T02:39:30.990Z,2.40
2022-11-26T02:42:04.323Z,2.40
2022-11-26T02:44:44.226Z,2.30
2022-11-26T02:47:16.757Z,2.40
2022-11-26T02:49:46.670Z,2.40
2022-11-26T02:52:17.243Z,2.40
2022-11-26T02:54:46.028Z,2.40
2022-11-26T02:57:16.207Z,2.40
2022-11-26T02:59:44.481Z,2.40
2022-11-26T03:02:32.270Z,2.40
2022-11-26T03:05:03.065Z,2.50
2022-11-26T03:07:33.075Z,2.50
2022-11-26T03:10:02.118Z,2.50
2022-11-26T03:12:30.652Z,2.50
2022-11-26T03:14:58.430Z,2.50
2022-11-26T03:17:26.561Z,2.50
2022-11-26T03:19:56.643Z,2.40
2022-11-26T03:22:24.820Z,2.50
2022-11-26T03:24:52.700Z,2.40
2022-11-26T03:27:21.058Z,2.40
2022-11-26T03:29:49.032Z,2.40
2022-11-26T03:32:17.473Z,2.30
2022-11-26T03:34:45.376Z,2.30
2022-11-26T03:37:13.732Z,2.20
2022-11-26T03:39:41.894Z,2.30
2022-11-26T03:42:10.167Z,2.20
2022-11-26T03:44:38.770Z,2.20
2022-11-26T03:47:07.327Z,2.30
2022-11-26T03:49:35.417Z,2.30
2022-11-26T03:52:04.389Z,2.30
2022-11-26T03:54:32.168Z,2.30
2022-11-26T03:57:00.047Z,2.30
2022-11-26T03:59:28.051Z,2.30
2022-11-26T04:01:57.193Z,2.20
2022-11-26T04:04:25.102Z,2.20
2022-11-26T04:06:53.355Z,2.30
2022-11-26T04:09:20.907Z,2.30
2022-11-26T04:11:50.000Z,2.30
2022-11-26T04:14:17.674Z,2.20
2022-11-26T04:16:45.881Z,2.20
2022-11-26T04:19:14.113Z,2.30
2022-11-26T04:21:42.170Z,2.20
2022-11-26T04:24:10.369Z,2.30
2022-11-26T04:26:41.568Z,2.40
2022-11-26T04:29:09.365Z,2.40
2022-11-26T04:31:37.684Z,2.40
2022-11-26T04:34:05.476Z,2.50
2022-11-26T04:36:33.468Z,2.40
2022-11-26T04:39:01.449Z,2.40
2022-11-26T04:41:29.776Z,2.40
2022-11-26T04:43:57.536Z,2.40
2022-11-26T04:46:25.647Z,2.40
2022-11-26T04:48:53.454Z,2.50
2022-11-26T04:51:22.107Z,2.50
2022-11-26T04:53:54.523Z,2.50
2022-11-26T04:56:24.537Z,2.40
2022-11-26T04:58:52.434Z,2.40
2022-11-26T05:01:20.707Z,2.40
2022-11-26T05:03:48.684Z,2.40
2022-11-26T05:06:17.221Z,2.40
2022-11-26T05:08:45.193Z,2.40
2022-11-26T05:11:13.807Z,2.40
2022-11-26T05:13:42.331Z,2.50
2022-11-26T05:16:10.795Z,2.50
2022-11-26T05:18:38.924Z,2.40
2022-11-26T05:21:07.425Z,2.50
2022-11-26T05:23:35.496Z,2.50
2022-11-26T05:26:04.061Z,2.50
2022-11-26T05:28:31.843Z,2.50
2022-11-26T05:31:01.869Z,2.60
2022-11-26T05:33:30.491Z,2.60
2022-11-26T05:35:59.176Z,2.60
2022-11-26T05:38:27.073Z,2.70
2022-11-26T05:40:58.324Z,2.70
2022-11-26T05:43:26.076Z,2.60
2022-11-26T05:45:55.888Z,2.60
2022-11-26T05:48:24.893Z,2.60
2022-11-26T05:51:00.124Z,2.60
2022-11-26T05:53:28.068Z,2.60
2022-11-26T05:55:56.342Z,2.70
2022-11-26T05:58:24.358Z,2.70
2022-11-26T06:00:53.181Z,2.70
2022-11-26T06:03:21.093Z,2.60
2022-11-26T06:05:49.605Z,2.60
2022-11-26T06:08:17.386Z,2.60
2022-11-26T06:10:45.917Z,2.60
2022-11-26T06:13:14.347Z,2.60
2022-11-26T06:15:42.676Z,2.50
2022-11-26T06:18:11.175Z,2.50
2022-11-26T06:20:39.716Z,2.50
2022-11-26T06:23:07.994Z,2.50
2022-11-26T06:25:36.495Z,2.50
2022-11-26T06:28:04.379Z,2.50
2022-11-26T06:30:32.559Z,2.50
2022-11-26T06:33:01.125Z,2.50
2022-11-26T06:35:29.378Z,2.50
2022-11-26T06:37:57.460Z,2.50
2022-11-26T06:40:25.794Z,2.50
2022-11-26T06:42:54.543Z,2.60
2022-11-26T06:45:24.309Z,2.60
2022-11-26T06:47:52.813Z,2.60
2022-11-26T06:50:23.130Z,2.70
2022-11-26T06:52:55.049Z,2.70
2022-11-26T06:55:24.220Z,2.60
2022-11-26T06:57:53.651Z,2.60
2022-11-26T07:00:22.409Z,2.60
2022-11-26T07:02:50.338Z,2.70
2022-11-26T07:05:18.645Z,2.60
2022-11-26T07:07:46.492Z,2.60
2022-11-26T07:10:14.683Z,2.50
2022-11-26T07:12:43.062Z,2.50
2022-11-26T07:15:12.164Z,2.50
2022-11-26T07:17:40.187Z,2.50
2022-11-26T07:20:09.543Z,2.50
2022-11-26T07:22:37.608Z,2.50
2022-11-26T07:25:12.151Z,2.50
2022-11-26T07:27:40.907Z,2.60
2022-11-26T07:30:10.194Z,2.50
2022-11-26T07:32:38.240Z,2.50
2022-11-26T07:35:06.994Z,2.50
2022-11-26T07:37:35.198Z,2.50
2022-11-26T07:40:04.978Z,2.50
2022-11-26T07:42:33.844Z,2.50
2022-11-26T07:45:03.984Z,2.50
2022-11-26T07:47:33.076Z,2.50
2022-11-26T07:50:01.763Z,2.40
2022-11-26T07:52:29.821Z,2.50
2022-11-26T07:54:57.763Z,2.40
2022-11-26T07:57:25.483Z,2.30
2022-11-26T07:59:53.656Z,2.30
2022-11-26T08:02:21.313Z,2.30
2022-11-26T08:04:49.228Z,2.20
2022-11-26T08:07:23.269Z,2.20
2022-11-26T08:09:56.356Z,2.30
2022-11-26T08:12:24.090Z,2.30
2022-11-26T08:14:52.061Z,2.40
2022-11-26T08:17:19.607Z,2.50
2022-11-26T08:19:48.610Z,2.50
2022-11-26T08:22:16.504Z,2.50
2022-11-26T08:24:44.736Z,2.50
2022-11-26T08:27:12.882Z,2.40
2022-11-26T08:29:41.046Z,2.40
2022-11-26T08:32:09.459Z,2.50
2022-11-26T08:34:38.426Z,2.40
2022-11-26T08:37:06.268Z,2.40
2022-11-26T08:39:34.440Z,2.40
2022-11-26T08:42:03.376Z,2.40
2022-11-26T08:44:31.813Z,2.40
2022-11-26T08:46:59.575Z,2.40
2022-11-26T08:49:27.561Z,2.30
2022-11-26T08:51:58.634Z,2.40
2022-11-26T08:54:27.619Z,2.40
2022-11-26T08:56:55.711Z,2.40
2022-11-26T08:59:24.463Z,2.40
2022-11-26T09:01:52.654Z,2.50
2022-11-26T09:04:21.166Z,2.60
2022-11-26T09:06:51.488Z,2.60
2022-11-26T09:09:20.289Z,2.60
2022-11-26T09:11:57.579Z,2.60
2022-11-26T09:14:30.943Z,2.60
2022-11-26T09:17:00.462Z,2.60
2022-11-26T09:19:29.586Z,2.60
2022-11-26T09:21:58.792Z,2.60
2022-11-26T09:24:27.391Z,2.60
2022-11-26T09:26:55.183Z,2.60
2022-11-26T09:29:24.679Z,2.60
2022-11-26T09:34:40.776Z,2.50
2022-11-26T09:37:08.988Z,2.50
2022-11-26T09:39:37.512Z,2.50
2022-11-26T09:42:18.099Z,2.60
2022-11-26T09:45:20.779Z,2.60
2022-11-26T09:47:52.435Z,2.60
2022-11-26T09:50:27.863Z,2.70
2022-11-26T09:53:17.231Z,2.70
2022-11-26T09:55:49.691Z,2.70
2022-11-26T09:58:58.142Z,2.80
2022-11-26T10:01:27.023Z,2.90
2022-11-26T10:03:55.020Z,2.80
2022-11-26T10:06:46.402Z,2.80
2022-11-26T10:09:43.962Z,2.80
2022-11-26T10:12:25.909Z,2.80
2022-11-26T10:15:08.955Z,2.90
2022-11-26T10:17:58.078Z,2.80
2022-11-26T10:20:40.604Z,2.80
2022-11-26T10:23:23.154Z,2.80
2022-11-26T10:25:58.616Z,2.70
2022-11-26T10:28:51.198Z,2.70
2022-11-26T10:31:29.602Z,2.70
2022-11-26T10:34:02.351Z,2.80
2022-11-26T10:36:39.781Z,2.90
2022-11-26T10:39:12.682Z,2.90
2022-11-26T10:41:40.531Z,2.80
2022-11-26T10:44:33.047Z,2.80
2022-11-26T10:47:18.785Z,2.80
2022-11-26T10:49:46.707Z,3.00
2022-11-26T10:52:17.932Z,2.90
2022-11-26T10:54:47.563Z,2.80
2022-11-26T10:57:19.499Z,2.90
2022-11-26T10:59:53.791Z,2.80
2022-11-26T11:02:31.047Z,2.80
2022-11-26T11:05:02.861Z,2.80
2022-11-26T11:07:38.154Z,2.70
2022-11-26T11:10:18.747Z,2.70
2022-11-26T11:13:12.443Z,2.80
2022-11-26T11:15:41.529Z,2.70
2022-11-26T11:18:20.569Z,2.80
2022-11-26T11:20:57.428Z,2.70
2022-11-26T11:23:52.636Z,2.70
2022-11-26T11:26:24.390Z,2.70
2022-11-26T11:28:54.348Z,2.70
2022-11-26T11:31:24.442Z,2.70
2022-11-26T11:34:04.235Z,2.70
2022-11-26T11:36:32.687Z,2.80
2022-11-26T11:39:02.470Z,2.80
2022-11-26T11:41:39.536Z,2.80
2022-11-26T11:44:18.436Z,2.80
2022-11-26T11:47:11.434Z,2.70
2022-11-26T11:49:56.379Z,2.80
2022-11-26T11:52:49.901Z,2.80
2022-11-26T11:55:32.468Z,2.80
2022-11-26T11:58:54.478Z,2.80
2022-11-26T12:01:49.064Z,2.80
2022-11-26T12:04:39.466Z,2.80
2022-11-26T12:07:15.732Z,2.80
2022-11-26T12:09:49.438Z,2.80
2022-11-26T12:12:38.168Z,2.70
2022-11-26T12:15:25.657Z,2.90
2022-11-26T12:18:31.718Z,2.90
2022-11-26T12:21:08.485Z,2.70
2022-11-26T12:23:50.823Z,2.80
2022-11-26T12:26:30.339Z,2.80
2022-11-26T12:29:05.912Z,2.80
2022-11-26T12:31:46.082Z,2.80
2022-11-26T12:34:24.547Z,2.80
2022-11-26T12:37:14.107Z,2.80
2022-11-26T12:39:53.364Z,2.80
2022-11-26T12:42:35.084Z,2.80
2022-11-26T12:45:21.149Z,2.80
2022-11-26T12:48:00.436Z,2.70
2022-11-26T12:50:44.530Z,2.70
2022-11-26T12:53:34.358Z,2.60
2022-11-26T12:56:12.322Z,2.60
2022-11-26T12:58:46.274Z,2.60
2022-11-26T13:01:13.731Z,2.60
2022-11-26T13:03:43.020Z,2.50
2022-11-26T13:06:38.501Z,2.60
2022-11-26T13:09:23.951Z,2.50
2022-11-26T13:12:11.716Z,2.40
2022-11-26T13:15:13.898Z,2.40
2022-11-26T13:17:46.457Z,2.50
2022-11-26T13:20:54.425Z,2.40
2022-11-26T13:23:34.591Z,2.50
2022-11-26T13:26:10.795Z,2.40
2022-11-26T13:29:08.366Z,2.40
2022-11-26T13:32:18.213Z,2.40
2022-11-26T13:35:17.108Z,2.40
2022-11-26T13:38:21.246Z,2.40
2022-11-26T13:40:59.061Z,2.30
2022-11-26T13:43:32.860Z,2.30
2022-11-26T13:46:10.156Z,2.40
2022-11-26T13:48:55.763Z,2.40
2022-11-26T13:51:37.275Z,2.40
2022-11-26T13:54:24.029Z,2.30
2022-11-26T13:57:02.113Z,2.30
2022-11-26T13:59:31.564Z,2.20
2022-11-26T14:01:58.941Z,2.20
2022-11-26T14:04:27.155Z,2.20
2022-11-26T14:07:06.773Z,2.20
2022-11-26T14:09:43.218Z,2.20
2022-11-26T14:12:12.049Z,2.20
2022-11-26T14:14:41.246Z,2.10
2022-11-26T14:17:08.720Z,2.20
2022-11-26T14:19:44.976Z,2.10
2022-11-26T14:22:21.312Z,2.10
2022-11-26T14:24:51.591Z,2.10
2022-11-26T14:27:20.096Z,2.10
2022-11-26T14:29:54.512Z,2.10
2022-11-26T14:32:27.295Z,2.10
2022-11-26T14:34:57.211Z,2.10
2022-11-26T14:37:31.276Z,2.10
2022-11-26T14:40:08.254Z,2.10
2022-11-26T14:42:35.484Z,2.10
2022-11-26T14:45:24.350Z,2.10
2022-11-26T14:47:53.231Z,2.10
2022-11-26T14:50:24.778Z,2.10
2022-11-26T14:52:58.839Z,2.10
2022-11-26T14:55:30.351Z,2.10
2022-11-26T14:58:09.164Z,2.10
2022-11-26T15:00:37.746Z,2.10
2022-11-26T15:03:18.874Z,2.10
2022-11-26T15:05:46.530Z,2.00
2022-11-26T15:08:19.447Z,2.00
2022-11-26T15:11:08.494Z,2.10
2022-11-26T15:13:41.825Z,2.10
2022-11-26T15:16:27.778Z,2.00
2022-11-26T15:18:55.765Z,2.00
2022-11-26T15:21:26.791Z,1.90
2022-11-26T15:23:57.010Z,1.90
2022-11-26T15:26:27.225Z,1.90
2022-11-26T15:28:54.346Z,2.00
2022-11-26T15:31:22.017Z,2.00
2022-11-26T15:33:50.849Z,2.00
2022-11-26T15:36:19.784Z,2.10
2022-11-26T15:39:03.172Z,2.10
2022-11-26T15:41:32.007Z,2.10
2022-11-26T15:44:00.522Z,2.00
2022-11-26T15:46:35.163Z,2.00
2022-11-26T15:49:10.032Z,1.90
2022-11-26T15:51:55.586Z,2.00
2022-11-26T15:54:38.409Z,1.90
2022-11-26T15:57:35.498Z,1.90
2022-11-26T16:00:07.194Z,2.00
2022-11-26T16:02:34.938Z,2.00
2022-11-26T16:05:03.966Z,2.00
2022-11-26T16:07:33.421Z,2.10
2022-11-26T16:10:16.979Z,2.00
2022-11-26T16:13:16.246Z,2.00
2022-11-26T16:16:13.089Z,2.00
2022-11-26T16:18:45.005Z,2.00
2022-11-26T16:21:21.878Z,2.00
2022-11-26T16:23:56.905Z,1.90
2022-11-26T16:26:24.771Z,1.90
2022-11-26T16:28:53.269Z,2.00
2022-11-26T16:31:21.295Z,1.90
2022-11-26T16:33:48.939Z,2.00
2022-11-26T16:36:21.195Z,2.00
2022-11-26T16:38:49.629Z,2.00
2022-11-26T16:41:19.191Z,2.10
2022-11-26T16:43:47.268Z,2.10
2022-11-26T16:46:20.215Z,2.10
2022-11-26T16:48:48.379Z,2.00
2022-11-26T16:51:16.327Z,2.00
2022-11-26T16:53:45.136Z,1.90
2022-11-26T16:56:23.114Z,2.00
2022-11-26T16:58:51.722Z,2.00
2022-11-26T17:01:18.984Z,1.90
2022-11-26T17:03:46.623Z,2.00
2022-11-26T17:06:24.247Z,2.10
2022-11-26T17:08:54.558Z,2.00
2022-11-26T17:11:22.222Z,2.00
2022-11-26T17:13:50.021Z,1.90
2022-11-26T17:16:19.883Z,1.90
2022-11-26T17:18:48.379Z,1.90
2022-11-26T17:21:16.199Z,1.80
2022-11-26T17:23:43.712Z,1.80
2022-11-26T17:26:21.722Z,1.80
2022-11-26T17:28:50.102Z,1.90
2022-11-26T17:31:17.969Z,1.80
2022-11-26T17:33:45.659Z,1.80
2022-11-26T17:36:20.353Z,1.70
2022-11-26T17:38:49.808Z,1.70
2022-11-26T17:41:17.769Z,1.70
2022-11-26T17:43:45.269Z,1.70
2022-11-26T17:46:19.493Z,1.70
2022-11-26T17:48:47.858Z,1.70
2022-11-26T17:51:15.992Z,1.70
2022-11-26T17:53:44.320Z,1.70
2022-11-26T17:56:20.386Z,1.60
2022-11-26T17:58:50.440Z,1.60
2022-11-26T18:01:18.534Z,1.70
2022-11-26T18:03:47.215Z,1.70
2022-11-26T18:06:20.724Z,1.80
2022-11-26T18:08:48.949Z,1.80
2022-11-26T18:11:16.654Z,1.90
2022-11-26T18:13:45.687Z,1.90
2022-11-26T18:16:14.278Z,1.80
2022-11-26T18:18:45.309Z,1.70
2022-11-26T18:21:14.280Z,1.70
2022-11-26T18:23:49.504Z,1.70
2022-11-26T18:29:15.923Z,1.80
2022-11-26T18:31:44.303Z,1.90
2022-11-26T18:34:11.967Z,1.90
2022-11-26T18:36:39.848Z,1.80
2022-11-26T18:39:07.438Z,1.70
2022-11-26T18:41:38.727Z,1.80
2022-11-26T18:44:07.013Z,1.70
2022-11-26T18:49:21.132Z,1.70
2022-11-26T18:51:54.943Z,1.80
2022-11-26T18:55:14.880Z,1.80
2022-11-26T18:57:42.128Z,1.80
2022-11-26T19:00:09.638Z,1.70
2022-11-26T19:02:37.014Z,1.70
2022-11-26T19:05:05.417Z,1.70
2022-11-26T19:07:33.549Z,1.70
2022-11-26T19:10:51.295Z,1.70
2022-11-26T19:16:22.630Z,1.70
2022-11-26T19:18:49.906Z,1.70
2022-11-26T19:21:25.736Z,1.70
2022-11-26T19:23:54.652Z,1.70
2022-11-26T19:26:22.389Z,1.80
2022-11-26T19:29:48.173Z,1.70
2022-11-26T19:32:33.278Z,1.70
2022-11-26T19:35:05.556Z,1.70
2022-11-26T19:37:33.100Z,1.70
2022-11-26T19:40:00.445Z,1.70
2022-11-26T19:42:29.954Z,1.70
2022-11-26T19:44:57.198Z,1.70
2022-11-26T19:47:42.704Z,1.70
2022-11-26T19:50:28.646Z,1.70
2022-11-26T19:52:55.673Z,1.70
2022-11-26T19:55:23.141Z,1.70
2022-11-26T19:57:50.147Z,1.70
2022-11-26T20:00:17.645Z,1.70
2022-11-26T20:02:44.697Z,1.70
2022-11-26T20:05:31.489Z,1.80
2022-11-26T20:08:17.212Z,1.80
2022-11-26T20:11:17.784Z,1.70
2022-11-26T20:13:47.352Z,1.80
2022-11-26T20:16:20.675Z,1.70
2022-11-26T20:18:48.885Z,1.70
2022-11-26T20:21:25.614Z,1.60
2022-11-26T20:25:06.625Z,1.70
2022-11-26T20:27:48.680Z,1.80
2022-11-26T20:30:15.854Z,1.90
2022-11-26T20:32:43.080Z,1.70
2022-11-26T20:35:11.051Z,1.60
2022-11-26T20:37:38.296Z,1.70
2022-11-26T20:40:05.992Z,1.70
2022-11-26T20:43:31.619Z,1.70
2022-11-26T20:46:06.929Z,1.60
2022-11-26T20:48:35.884Z,1.70
2022-11-26T20:51:04.106Z,1.70
2022-11-26T20:53:31.802Z,1.80
2022-11-26T20:55:58.885Z,1.90
2022-11-26T20:58:27.398Z,1.90
2022-11-26T21:01:38.524Z,1.80
2022-11-26T21:04:32.234Z,1.90
2022-11-26T21:06:59.718Z,1.80
2022-11-26T21:09:27.050Z,1.80
2022-11-26T21:11:54.045Z,1.90
2022-11-26T21:14:21.358Z,2.00
2022-11-26T21:16:49.089Z,2.00
2022-11-26T21:19:27.168Z,2.00
2022-11-26T21:22:35.138Z,2.00
2022-11-26T21:25:02.440Z,2.00
2022-11-26T21:27:29.624Z,2.00
2022-11-26T21:29:56.881Z,2.00
2022-11-26T21:32:23.849Z,2.00
2022-11-26T21:34:51.097Z,1.80
2022-11-26T21:37:20.430Z,1.80
2022-11-26T21:39:58.821Z,1.80
2022-11-26T21:42:26.368Z,1.90
2022-11-26T21:44:53.562Z,2.00
2022-11-26T21:47:20.558Z,1.90
2022-11-26T21:49:47.774Z,2.00
2022-11-26T21:52:15.213Z,2.00
2022-11-26T21:54:42.634Z,1.90
2022-11-26T21:57:32.144Z,1.90
2022-11-26T22:00:05.392Z,2.00
2022-11-26T22:02:32.568Z,2.00
2022-11-26T22:04:59.834Z,2.10
2022-11-26T22:07:27.070Z,2.00
2022-11-26T22:09:54.495Z,2.10
2022-11-26T22:12:21.648Z,2.00
2022-11-26T22:14:57.840Z,2.00
2022-11-26T22:17:46.667Z,2.00
2022-11-26T22:20:14.266Z,2.10
2022-11-26T22:22:41.204Z,2.00
2022-11-26T22:25:08.674Z,2.00
2022-11-26T22:27:35.624Z,2.10
2022-11-26T22:30:02.950Z,2.10
2022-11-26T22:33:26.556Z,2.10
2022-11-26T22:36:19.780Z,2.00
2022-11-26T22:38:47.672Z,2.00
2022-11-26T22:41:15.742Z,2.00
2022-11-26T22:43:43.370Z,2.00
2022-11-26T22:46:16.691Z,1.90
2022-11-26T22:48:48.215Z,2.00
2022-11-26T22:51:26.686Z,2.00
2022-11-26T22:54:01.666Z,2.00
2022-11-26T22:56:29.405Z,2.00
2022-11-26T22:58:56.409Z,2.00
2022-11-26T23:01:29.567Z,2.00
2022-11-26T23:03:59.939Z,2.00
2022-11-26T23:06:29.464Z,2.00
2022-11-26T23:08:57.950Z,2.00
2022-11-26T23:11:42.132Z,2.10
2022-11-26T23:14:45.417Z,2.00
2022-11-26T23:17:12.693Z,2.00
2022-11-26T23:19:40.026Z,2.00
2022-11-26T23:22:07.572Z,2.00
2022-11-26T23:24:35.042Z,1.90
2022-11-26T23:27:02.285Z,2.00
2022-11-26T23:30:03.384Z,1.90
2022-11-26T23:32:32.575Z,1.90
2022-11-26T23:34:59.798Z,1.80
2022-11-26T23:37:27.038Z,1.80
2022-11-26T23:39:53.975Z,1.80
2022-11-26T23:42:21.200Z,1.70
2022-11-26T23:44:48.194Z,1.80
2022-11-26T23:47:24.398Z,1.80
2022-11-26T23:50:15.155Z,1.80
2022-11-26T23:52:42.530Z,1.80
2022-11-26T23:55:09.974Z,1.70
2022-11-26T23:57:37.286Z,1.60
